sensor_id;sensor_type;location;lat;lon;timestamp;temperature;humidity
9790;DHT22;4934;50.852;8.098;2023-02-01T00:01:29;4.30;99.90
9790;DHT22;4934;50.852;8.098;2023-02-01T00:03:54;4.40;99.90
9790;DHT22;4934;50.852;8.098;2023-02-01T00:06:20;4.40;99.90
9790;DHT22;4934;50.852;8.098;2023-02-01T00:08:46;4.40;99.90
9790;DHT22;4934;50.852;8.098;2023-02-01T00:11:12;4.40;99.90
9790;DHT22;4934;50.852;8.098;2023-02-01T00:13:40;4.40;99.90
9790;DHT22;4934;50.852;8.098;2023-02-01T00:16:12;4.40;99.90
9790;DHT22;4934;50.852;8.098;2023-02-01T00:18:38;4.60;99.90
9790;DHT22;4934;50.852;8.098;2023-02-01T00:21:04;4.50;99.90
9790;DHT22;4934;50.852;8.098;2023-02-01T00:23:34;4.50;99.90
9790;DHT22;4934;50.852;8.098;2023-02-01T00:26:02;4.50;99.90
9790;DHT22;4934;50.852;8.098;2023-02-01T00:28:28;4.50;99.90
9790;DHT22;4934;50.852;8.098;2023-02-01T00:30:58;4.40;99.90
9790;DHT22;4934;50.852;8.098;2023-02-01T00:33:24;4.40;99.90
9790;DHT22;4934;50.852;8.098;2023-02-01T00:35:50;4.50;99.90
9790;DHT22;4934;50.852;8.098;2023-02-01T00:38:16;4.50;99.90
9790;DHT22;4934;50.852;8.098;2023-02-01T00:40:41;4.60;99.90
9790;DHT22;4934;50.852;8.098;2023-02-01T00:43:07;4.60;99.90
9790;DHT22;4934;50.852;8.098;2023-02-01T00:45:32;4.60;99.90
9790;DHT22;4934;50.852;8.098;2023-02-01T00:47:58;4.60;99.90
9790;DHT22;4934;50.852;8.098;2023-02-01T00:50:23;4.60;99.90
9790;DHT22;4934;50.852;8.098;2023-02-01T00:52:49;4.60;99.90
9790;DHT22;4934;50.852;8.098;2023-02-01T00:55:14;4.70;99.90
9790;DHT22;4934;50.852;8.098;2023-02-01T00:57:40;4.60;99.90
9790;DHT22;4934;50.852;8.098;2023-02-01T01:00:06;4.70;99.90
9790;DHT22;4934;50.852;8.098;2023-02-01T01:02:32;4.70;99.90
9790;DHT22;4934;50.852;8.098;2023-02-01T01:04:57;4.70;99.90
9790;DHT22;4934;50.852;8.098;2023-02-01T01:07:23;4.80;99.90
9790;DHT22;4934;50.852;8.098;2023-02-01T01:09:49;4.70;99.90
9790;DHT22;4934;50.852;8.098;2023-02-01T01:12:14;4.70;99.90
9790;DHT22;4934;50.852;8.098;2023-02-01T01:14:40;4.70;99.90
9790;DHT22;4934;50.852;8.098;2023-02-01T01:17:05;4.80;99.90
9790;DHT22;4934;50.852;8.098;2023-02-01T01:19:31;4.70;99.90
9790;DHT22;4934;50.852;8.098;2023-02-01T01:21:56;4.80;99.90
9790;DHT22;4934;50.852;8.098;2023-02-01T01:24:22;4.70;99.90
9790;DHT22;4934;50.852;8.098;2023-02-01T01:26:47;4.70;99.90
9790;DHT22;4934;50.852;8.098;2023-02-01T01:29:13;4.80;99.90
9790;DHT22;4934;50.852;8.098;2023-02-01T01:31:38;4.80;99.90
9790;DHT22;4934;50.852;8.098;2023-02-01T01:34:04;4.80;99.90
9790;DHT22;4934;50.852;8.098;2023-02-01T01:36:30;4.80;99.90
9790;DHT22;4934;50.852;8.098;2023-02-01T01:38:55;4.70;99.90
9790;DHT22;4934;50.852;8.098;2023-02-01T01:41:24;4.70;99.90
9790;DHT22;4934;50.852;8.098;2023-02-01T01:43:53;4.60;99.90
9790;DHT22;4934;50.852;8.098;2023-02-01T01:46:24;4.50;99.90
9790;DHT22;4934;50.852;8.098;2023-02-01T01:49:05;4.60;99.90
9790;DHT22;4934;50.852;8.098;2023-02-01T01:51:37;4.70;99.90
9790;DHT22;4934;50.852;8.098;2023-02-01T01:54:18;4.70;99.90
9790;DHT22;4934;50.852;8.098;2023-02-01T01:56:48;4.70;99.90
9790;DHT22;4934;50.852;8.098;2023-02-01T01:59:15;4.60;99.90
9790;DHT22;4934;50.852;8.098;2023-02-01T02:01:41;4.60;99.90
9790;DHT22;4934;50.852;8.098;2023-02-01T02:04:07;4.60;99.90
9790;DHT22;4934;50.852;8.098;2023-02-01T02:06:57;4.60;99.90
9790;DHT22;4934;50.852;8.098;2023-02-01T02:09:25;4.70;99.90
9790;DHT22;4934;50.852;8.098;2023-02-01T02:11:50;4.70;99.90
9790;DHT22;4934;50.852;8.098;2023-02-01T02:14:17;4.70;99.90
9790;DHT22;4934;50.852;8.098;2023-02-01T02:25:15;4.70;99.90
9790;DHT22;4934;50.852;8.098;2023-02-01T02:38:58;4.70;99.90
9790;DHT22;4934;50.852;8.098;2023-02-01T02:41:33;4.70;99.90
9790;DHT22;4934;50.852;8.098;2023-02-01T02:47:54;4.70;99.90
9790;DHT22;4934;50.852;8.098;2023-02-01T02:50:32;4.70;99.90
9790;DHT22;4934;50.852;8.098;2023-02-01T02:53:27;4.60;99.90
9790;DHT22;4934;50.852;8.098;2023-02-01T02:56:12;4.60;99.90
9790;DHT22;4934;50.852;8.098;2023-02-01T02:58:58;4.50;99.90
9790;DHT22;4934;50.852;8.098;2023-02-01T03:01:43;4.60;99.90
9790;DHT22;4934;50.852;8.098;2023-02-01T03:04:27;4.60;99.90
9790;DHT22;4934;50.852;8.098;2023-02-01T03:06:53;4.60;99.90
9790;DHT22;4934;50.852;8.098;2023-02-01T03:09:39;4.60;99.90
9790;DHT22;4934;50.852;8.098;2023-02-01T03:12:10;4.50;99.90
9790;DHT22;4934;50.852;8.098;2023-02-01T03:15:03;4.40;99.90
9790;DHT22;4934;50.852;8.098;2023-02-01T03:17:36;4.50;99.90
9790;DHT22;4934;50.852;8.098;2023-02-01T03:20:04;4.40;99.90
9790;DHT22;4934;50.852;8.098;2023-02-01T03:22:32;4.40;99.90
9790;DHT22;4934;50.852;8.098;2023-02-01T03:25:17;4.50;99.90
9790;DHT22;4934;50.852;8.098;2023-02-01T03:28:07;4.50;99.90
9790;DHT22;4934;50.852;8.098;2023-02-01T03:30:42;4.40;99.90
9790;DHT22;4934;50.852;8.098;2023-02-01T03:33:16;4.30;99.90
9790;DHT22;4934;50.852;8.098;2023-02-01T03:38:45;4.40;99.90
9790;DHT22;4934;50.852;8.098;2023-02-01T03:41:19;4.30;99.90
9790;DHT22;4934;50.852;8.098;2023-02-01T03:47:05;4.30;99.90
9790;DHT22;4934;50.852;8.098;2023-02-01T03:49:40;4.30;99.90
9790;DHT22;4934;50.852;8.098;2023-02-01T03:52:16;4.30;99.90
9790;DHT22;4934;50.852;8.098;2023-02-01T03:54:45;4.30;99.90
9790;DHT22;4934;50.852;8.098;2023-02-01T03:57:14;4.30;99.90
9790;DHT22;4934;50.852;8.098;2023-02-01T03:59:43;4.30;99.90
9790;DHT22;4934;50.852;8.098;2023-02-01T04:02:09;4.30;99.90
9790;DHT22;4934;50.852;8.098;2023-02-01T04:04:35;4.30;99.90
9790;DHT22;4934;50.852;8.098;2023-02-01T04:07:01;4.30;99.90
9790;DHT22;4934;50.852;8.098;2023-02-01T04:09:27;4.20;99.90
9790;DHT22;4934;50.852;8.098;2023-02-01T04:11:52;4.20;99.90
9790;DHT22;4934;50.852;8.098;2023-02-01T04:14:18;4.20;99.90
9790;DHT22;4934;50.852;8.098;2023-02-01T04:16:44;4.20;99.90
9790;DHT22;4934;50.852;8.098;2023-02-01T04:19:10;4.20;99.90
9790;DHT22;4934;50.852;8.098;2023-02-01T04:21:35;4.20;99.90
9790;DHT22;4934;50.852;8.098;2023-02-01T04:24:01;4.20;99.90
9790;DHT22;4934;50.852;8.098;2023-02-01T04:26:26;4.10;99.90
9790;DHT22;4934;50.852;8.098;2023-02-01T04:28:52;4.10;99.90
9790;DHT22;4934;50.852;8.098;2023-02-01T04:31:18;4.10;99.90
9790;DHT22;4934;50.852;8.098;2023-02-01T04:33:55;4.10;99.90
9790;DHT22;4934;50.852;8.098;2023-02-01T04:36:23;4.10;99.90
9790;DHT22;4934;50.852;8.098;2023-02-01T04:38:52;4.10;99.90
9790;DHT22;4934;50.852;8.098;2023-02-01T04:41:18;4.10;99.90
9790;DHT22;4934;50.852;8.098;2023-02-01T04:43:45;4.10;99.90
9790;DHT22;4934;50.852;8.098;2023-02-01T04:46:11;4.10;99.90
9790;DHT22;4934;50.852;8.098;2023-02-01T04:48:37;4.10;99.90
9790;DHT22;4934;50.852;8.098;2023-02-01T04:51:02;4.10;99.90
9790;DHT22;4934;50.852;8.098;2023-02-01T04:53:28;4.10;99.90
9790;DHT22;4934;50.852;8.098;2023-02-01T04:55:55;4.10;99.90
9790;DHT22;4934;50.852;8.098;2023-02-01T04:58:20;4.10;99.90
9790;DHT22;4934;50.852;8.098;2023-02-01T05:00:46;4.00;99.90
9790;DHT22;4934;50.852;8.098;2023-02-01T05:03:12;4.10;99.90
9790;DHT22;4934;50.852;8.098;2023-02-01T05:05:37;4.10;99.90
9790;DHT22;4934;50.852;8.098;2023-02-01T05:08:03;4.10;99.90
9790;DHT22;4934;50.852;8.098;2023-02-01T05:10:29;4.10;99.90
9790;DHT22;4934;50.852;8.098;2023-02-01T05:12:54;4.10;99.90
9790;DHT22;4934;50.852;8.098;2023-02-01T05:15:39;4.10;99.90
9790;DHT22;4934;50.852;8.098;2023-02-01T05:18:04;4.10;99.90
9790;DHT22;4934;50.852;8.098;2023-02-01T05:20:30;4.00;99.90
9790;DHT22;4934;50.852;8.098;2023-02-01T05:22:55;4.10;99.90
9790;DHT22;4934;50.852;8.098;2023-02-01T05:25:21;4.00;99.90
9790;DHT22;4934;50.852;8.098;2023-02-01T05:27:47;4.00;99.90
9790;DHT22;4934;50.852;8.098;2023-02-01T05:30:13;4.00;99.90
9790;DHT22;4934;50.852;8.098;2023-02-01T05:32:38;4.00;99.90
9790;DHT22;4934;50.852;8.098;2023-02-01T05:35:04;4.00;99.90
9790;DHT22;4934;50.852;8.098;2023-02-01T05:37:30;4.00;99.90
9790;DHT22;4934;50.852;8.098;2023-02-01T05:39:55;4.00;99.90
9790;DHT22;4934;50.852;8.098;2023-02-01T05:42:21;4.00;99.90
9790;DHT22;4934;50.852;8.098;2023-02-01T05:44:47;4.00;99.90
9790;DHT22;4934;50.852;8.098;2023-02-01T05:47:12;4.00;99.90
9790;DHT22;4934;50.852;8.098;2023-02-01T05:49:38;4.10;99.90
9790;DHT22;4934;50.852;8.098;2023-02-01T05:52:04;4.10;99.90
9790;DHT22;4934;50.852;8.098;2023-02-01T05:54:30;4.10;99.90
9790;DHT22;4934;50.852;8.098;2023-02-01T05:56:55;4.10;99.90
9790;DHT22;4934;50.852;8.098;2023-02-01T05:59:21;4.00;99.90
9790;DHT22;4934;50.852;8.098;2023-02-01T06:01:46;4.10;99.90
9790;DHT22;4934;50.852;8.098;2023-02-01T06:04:12;4.10;99.90
9790;DHT22;4934;50.852;8.098;2023-02-01T06:06:38;4.10;99.90
9790;DHT22;4934;50.852;8.098;2023-02-01T06:09:03;4.10;99.90
9790;DHT22;4934;50.852;8.098;2023-02-01T06:11:29;4.10;99.90
9790;DHT22;4934;50.852;8.098;2023-02-01T06:13:55;4.10;99.90
9790;DHT22;4934;50.852;8.098;2023-02-01T06:16:21;4.20;99.90
9790;DHT22;4934;50.852;8.098;2023-02-01T06:18:48;4.10;99.90
9790;DHT22;4934;50.852;8.098;2023-02-01T06:21:14;4.10;99.90
9790;DHT22;4934;50.852;8.098;2023-02-01T06:23:52;4.20;99.90
9790;DHT22;4934;50.852;8.098;2023-02-01T06:26:17;4.10;99.90
9790;DHT22;4934;50.852;8.098;2023-02-01T06:28:43;4.10;99.90
9790;DHT22;4934;50.852;8.098;2023-02-01T06:31:09;4.10;99.90
9790;DHT22;4934;50.852;8.098;2023-02-01T06:33:36;4.20;99.90
9790;DHT22;4934;50.852;8.098;2023-02-01T06:36:05;4.10;99.90
9790;DHT22;4934;50.852;8.098;2023-02-01T06:38:31;4.20;99.90
9790;DHT22;4934;50.852;8.098;2023-02-01T06:41:00;4.20;99.90
9790;DHT22;4934;50.852;8.098;2023-02-01T06:43:27;4.20;99.90
9790;DHT22;4934;50.852;8.098;2023-02-01T06:45:58;4.20;99.90
9790;DHT22;4934;50.852;8.098;2023-02-01T06:48:24;4.20;99.90
9790;DHT22;4934;50.852;8.098;2023-02-01T06:50:50;4.20;99.90
9790;DHT22;4934;50.852;8.098;2023-02-01T06:53:15;4.20;99.90
9790;DHT22;4934;50.852;8.098;2023-02-01T06:55:41;4.20;99.90
9790;DHT22;4934;50.852;8.098;2023-02-01T06:58:07;4.20;99.90
9790;DHT22;4934;50.852;8.098;2023-02-01T07:00:32;4.20;99.90
9790;DHT22;4934;50.852;8.098;2023-02-01T07:02:58;4.20;99.90
9790;DHT22;4934;50.852;8.098;2023-02-01T07:05:25;4.30;99.90
9790;DHT22;4934;50.852;8.098;2023-02-01T07:07:50;4.10;99.90
9790;DHT22;4934;50.852;8.098;2023-02-01T07:10:16;4.20;99.90
9790;DHT22;4934;50.852;8.098;2023-02-01T07:12:42;4.20;99.90
9790;DHT22;4934;50.852;8.098;2023-02-01T07:15:08;4.20;99.90
9790;DHT22;4934;50.852;8.098;2023-02-01T07:17:33;4.10;99.90
9790;DHT22;4934;50.852;8.098;2023-02-01T07:19:59;4.20;99.90
9790;DHT22;4934;50.852;8.098;2023-02-01T07:22:27;4.20;99.90
9790;DHT22;4934;50.852;8.098;2023-02-01T07:24:52;4.20;99.90
9790;DHT22;4934;50.852;8.098;2023-02-01T07:27:18;4.20;99.90
9790;DHT22;4934;50.852;8.098;2023-02-01T07:29:45;4.20;99.90
9790;DHT22;4934;50.852;8.098;2023-02-01T07:32:10;4.20;99.90
9790;DHT22;4934;50.852;8.098;2023-02-01T07:34:36;4.20;99.90
9790;DHT22;4934;50.852;8.098;2023-02-01T07:37:01;4.20;99.90
9790;DHT22;4934;50.852;8.098;2023-02-01T07:39:28;4.20;99.90
9790;DHT22;4934;50.852;8.098;2023-02-01T07:41:54;4.20;99.90
9790;DHT22;4934;50.852;8.098;2023-02-01T07:44:19;4.20;99.90
9790;DHT22;4934;50.852;8.098;2023-02-01T07:46:48;4.20;99.90
9790;DHT22;4934;50.852;8.098;2023-02-01T07:49:14;4.20;99.90
9790;DHT22;4934;50.852;8.098;2023-02-01T07:51:39;4.20;99.90
9790;DHT22;4934;50.852;8.098;2023-02-01T07:54:05;4.20;99.90
9790;DHT22;4934;50.852;8.098;2023-02-01T07:56:31;4.20;99.90
9790;DHT22;4934;50.852;8.098;2023-02-01T07:58:56;4.20;99.90
9790;DHT22;4934;50.852;8.098;2023-02-01T08:01:26;4.20;99.90
9790;DHT22;4934;50.852;8.098;2023-02-01T08:03:53;4.10;99.90
9790;DHT22;4934;50.852;8.098;2023-02-01T08:06:20;4.20;99.90
9790;DHT22;4934;50.852;8.098;2023-02-01T08:08:47;4.10;99.90
9790;DHT22;4934;50.852;8.098;2023-02-01T08:11:14;4.10;99.90
9790;DHT22;4934;50.852;8.098;2023-02-01T08:13:40;4.10;99.90
9790;DHT22;4934;50.852;8.098;2023-02-01T08:16:07;4.10;99.90
9790;DHT22;4934;50.852;8.098;2023-02-01T08:18:34;4.10;99.90
9790;DHT22;4934;50.852;8.098;2023-02-01T08:21:06;4.10;99.90
9790;DHT22;4934;50.852;8.098;2023-02-01T08:23:34;4.10;99.90
9790;DHT22;4934;50.852;8.098;2023-02-01T08:28:47;4.10;99.90
9790;DHT22;4934;50.852;8.098;2023-02-01T08:31:16;4.10;99.90
9790;DHT22;4934;50.852;8.098;2023-02-01T08:33:43;4.10;99.90
9790;DHT22;4934;50.852;8.098;2023-02-01T08:36:10;4.10;99.90
9790;DHT22;4934;50.852;8.098;2023-02-01T08:38:38;4.00;99.90
9790;DHT22;4934;50.852;8.098;2023-02-01T08:41:16;4.10;99.90
9790;DHT22;4934;50.852;8.098;2023-02-01T08:43:42;4.10;99.90
9790;DHT22;4934;50.852;8.098;2023-02-01T08:46:09;4.00;99.90
9790;DHT22;4934;50.852;8.098;2023-02-01T08:48:35;4.10;99.90
9790;DHT22;4934;50.852;8.098;2023-02-01T08:51:06;4.10;99.90
9790;DHT22;4934;50.852;8.098;2023-02-01T08:53:32;4.10;99.90
9790;DHT22;4934;50.852;8.098;2023-02-01T08:55:58;4.10;99.90
9790;DHT22;4934;50.852;8.098;2023-02-01T08:58:24;4.10;99.90
9790;DHT22;4934;50.852;8.098;2023-02-01T09:00:50;4.10;99.90
9790;DHT22;4934;50.852;8.098;2023-02-01T09:03:16;4.10;99.90
9790;DHT22;4934;50.852;8.098;2023-02-01T09:05:42;4.20;99.90
9790;DHT22;4934;50.852;8.098;2023-02-01T09:08:07;4.20;99.90
9790;DHT22;4934;50.852;8.098;2023-02-01T09:10:34;4.10;99.90
9790;DHT22;4934;50.852;8.098;2023-02-01T09:13:00;4.20;99.90
9790;DHT22;4934;50.852;8.098;2023-02-01T09:15:26;4.20;99.90
9790;DHT22;4934;50.852;8.098;2023-02-01T09:17:51;4.20;99.90
9790;DHT22;4934;50.852;8.098;2023-02-01T09:20:17;4.20;99.90
9790;DHT22;4934;50.852;8.098;2023-02-01T09:22:44;4.20;99.90
9790;DHT22;4934;50.852;8.098;2023-02-01T09:25:09;4.20;99.90
9790;DHT22;4934;50.852;8.098;2023-02-01T09:27:35;4.20;99.90
9790;DHT22;4934;50.852;8.098;2023-02-01T09:30:01;4.20;99.90
9790;DHT22;4934;50.852;8.098;2023-02-01T09:32:27;4.20;99.90
9790;DHT22;4934;50.852;8.098;2023-02-01T09:34:53;4.20;99.90
9790;DHT22;4934;50.852;8.098;2023-02-01T09:37:19;4.20;99.90
9790;DHT22;4934;50.852;8.098;2023-02-01T09:39:45;4.20;99.90
9790;DHT22;4934;50.852;8.098;2023-02-01T09:42:23;4.30;99.90
9790;DHT22;4934;50.852;8.098;2023-02-01T09:47:48;4.30;99.90
9790;DHT22;4934;50.852;8.098;2023-02-01T09:50:19;4.30;99.90
9790;DHT22;4934;50.852;8.098;2023-02-01T09:52:54;4.30;99.90
9790;DHT22;4934;50.852;8.098;2023-02-01T09:55:41;4.30;99.90
9790;DHT22;4934;50.852;8.098;2023-02-01T09:58:38;4.30;99.90
9790;DHT22;4934;50.852;8.098;2023-02-01T10:01:09;4.40;99.90
9790;DHT22;4934;50.852;8.098;2023-02-01T10:03:37;4.40;99.90
9790;DHT22;4934;50.852;8.098;2023-02-01T10:06:27;4.40;99.90
9790;DHT22;4934;50.852;8.098;2023-02-01T10:09:16;4.40;99.90
9790;DHT22;4934;50.852;8.098;2023-02-01T10:17:04;4.40;99.90
9790;DHT22;4934;50.852;8.098;2023-02-01T10:22:39;4.50;99.90
9790;DHT22;4934;50.852;8.098;2023-02-01T10:27:35;4.50;99.90
9790;DHT22;4934;50.852;8.098;2023-02-01T10:32:48;4.50;99.90
9790;DHT22;4934;50.852;8.098;2023-02-01T10:35:18;4.50;99.90
9790;DHT22;4934;50.852;8.098;2023-02-01T10:37:46;4.60;99.90
9790;DHT22;4934;50.852;8.098;2023-02-01T10:40:16;4.60;99.90
9790;DHT22;4934;50.852;8.098;2023-02-01T10:42:43;4.60;99.90
9790;DHT22;4934;50.852;8.098;2023-02-01T10:45:20;4.60;99.90
9790;DHT22;4934;50.852;8.098;2023-02-01T10:47:49;4.60;99.90
9790;DHT22;4934;50.852;8.098;2023-02-01T10:55:49;4.60;99.90
9790;DHT22;4934;50.852;8.098;2023-02-01T10:58:28;4.60;99.90
9790;DHT22;4934;50.852;8.098;2023-02-01T11:01:01;4.60;99.90
9790;DHT22;4934;50.852;8.098;2023-02-01T11:03:37;4.60;99.90
9790;DHT22;4934;50.852;8.098;2023-02-01T11:06:11;4.70;99.90
9790;DHT22;4934;50.852;8.098;2023-02-01T11:08:47;4.80;99.90
9790;DHT22;4934;50.852;8.098;2023-02-01T11:11:13;4.70;99.90
9790;DHT22;4934;50.852;8.098;2023-02-01T11:13:40;4.70;99.90
9790;DHT22;4934;50.852;8.098;2023-02-01T11:16:06;4.70;99.90
9790;DHT22;4934;50.852;8.098;2023-02-01T11:18:36;4.80;99.90
9790;DHT22;4934;50.852;8.098;2023-02-01T11:21:02;4.80;99.90
9790;DHT22;4934;50.852;8.098;2023-02-01T11:23:30;4.80;99.90
9790;DHT22;4934;50.852;8.098;2023-02-01T11:26:01;4.80;99.90
9790;DHT22;4934;50.852;8.098;2023-02-01T11:28:32;4.80;99.90
9790;DHT22;4934;50.852;8.098;2023-02-01T11:31:02;4.80;99.90
9790;DHT22;4934;50.852;8.098;2023-02-01T11:33:33;4.80;99.90
9790;DHT22;4934;50.852;8.098;2023-02-01T11:36:16;4.80;99.90
9790;DHT22;4934;50.852;8.098;2023-02-01T11:38:51;4.90;99.90
9790;DHT22;4934;50.852;8.098;2023-02-01T11:41:25;5.00;99.90
9790;DHT22;4934;50.852;8.098;2023-02-01T11:43:56;5.00;99.90
9790;DHT22;4934;50.852;8.098;2023-02-01T11:46:34;5.00;99.90
9790;DHT22;4934;50.852;8.098;2023-02-01T11:49:26;5.00;99.90
9790;DHT22;4934;50.852;8.098;2023-02-01T11:52:08;5.10;99.90
9790;DHT22;4934;50.852;8.098;2023-02-01T11:55:08;5.10;99.90
9790;DHT22;4934;50.852;8.098;2023-02-01T12:01:06;5.10;99.90
9790;DHT22;4934;50.852;8.098;2023-02-01T12:06:55;5.10;99.90
9790;DHT22;4934;50.852;8.098;2023-02-01T12:09:39;5.20;99.90
9790;DHT22;4934;50.852;8.098;2023-02-01T12:12:11;5.20;99.90
9790;DHT22;4934;50.852;8.098;2023-02-01T12:28:58;5.30;99.90
9790;DHT22;4934;50.852;8.098;2023-02-01T12:39:48;5.60;99.90
9790;DHT22;4934;50.852;8.098;2023-02-01T12:42:41;5.50;99.90
9790;DHT22;4934;50.852;8.098;2023-02-01T12:45:25;5.50;99.90
9790;DHT22;4934;50.852;8.098;2023-02-01T12:47:56;5.50;99.90
9790;DHT22;4934;50.852;8.098;2023-02-01T12:50:29;5.50;99.90
9790;DHT22;4934;50.852;8.098;2023-02-01T12:53:07;5.50;99.90
9790;DHT22;4934;50.852;8.098;2023-02-01T12:55:38;5.50;99.90
9790;DHT22;4934;50.852;8.098;2023-02-01T12:58:35;5.40;99.90
9790;DHT22;4934;50.852;8.098;2023-02-01T13:01:18;5.40;99.90
9790;DHT22;4934;50.852;8.098;2023-02-01T13:04:26;5.30;99.90
9790;DHT22;4934;50.852;8.098;2023-02-01T13:07:20;5.20;99.90
9790;DHT22;4934;50.852;8.098;2023-02-01T13:09:55;5.20;99.90
9790;DHT22;4934;50.852;8.098;2023-02-01T13:12:28;5.20;99.90
9790;DHT22;4934;50.852;8.098;2023-02-01T13:15:10;5.10;99.90
9790;DHT22;4934;50.852;8.098;2023-02-01T13:17:37;5.10;99.90
9790;DHT22;4934;50.852;8.098;2023-02-01T13:20:17;5.10;99.90
9790;DHT22;4934;50.852;8.098;2023-02-01T13:22:49;5.10;99.90
9790;DHT22;4934;50.852;8.098;2023-02-01T13:25:29;5.20;99.90
9790;DHT22;4934;50.852;8.098;2023-02-01T13:28:01;5.20;99.90
9790;DHT22;4934;50.852;8.098;2023-02-01T13:30:52;5.10;99.90
9790;DHT22;4934;50.852;8.098;2023-02-01T13:39:40;5.10;99.90
9790;DHT22;4934;50.852;8.098;2023-02-01T13:42:21;5.10;99.90
9790;DHT22;4934;50.852;8.098;2023-02-01T13:44:56;5.10;99.90
9790;DHT22;4934;50.852;8.098;2023-02-01T13:47:27;5.10;99.90
9790;DHT22;4934;50.852;8.098;2023-02-01T13:49:55;5.10;99.90
9790;DHT22;4934;50.852;8.098;2023-02-01T13:52:29;5.10;99.90
9790;DHT22;4934;50.852;8.098;2023-02-01T13:57:47;5.00;99.90
9790;DHT22;4934;50.852;8.098;2023-02-01T14:00:24;5.00;99.90
9790;DHT22;4934;50.852;8.098;2023-02-01T14:13:36;4.90;99.90
9790;DHT22;4934;50.852;8.098;2023-02-01T14:21:31;4.80;99.90
9790;DHT22;4934;50.852;8.098;2023-02-01T14:26:52;4.80;99.90
9790;DHT22;4934;50.852;8.098;2023-02-01T14:29:31;4.70;99.90
9790;DHT22;4934;50.852;8.098;2023-02-01T14:44:51;4.60;99.90
9790;DHT22;4934;50.852;8.098;2023-02-01T14:50:12;4.70;99.90
9790;DHT22;4934;50.852;8.098;2023-02-01T14:55:34;4.60;99.90
9790;DHT22;4934;50.852;8.098;2023-02-01T14:58:03;4.60;99.90
9790;DHT22;4934;50.852;8.098;2023-02-01T15:00:31;4.60;99.90
9790;DHT22;4934;50.852;8.098;2023-02-01T15:05:58;4.60;99.90
9790;DHT22;4934;50.852;8.098;2023-02-01T15:08:30;4.60;99.90
9790;DHT22;4934;50.852;8.098;2023-02-01T15:10:58;4.60;99.90
9790;DHT22;4934;50.852;8.098;2023-02-01T15:13:27;4.60;99.90
9790;DHT22;4934;50.852;8.098;2023-02-01T15:18:26;4.50;99.90
9790;DHT22;4934;50.852;8.098;2023-02-01T15:21:00;4.60;99.90
9790;DHT22;4934;50.852;8.098;2023-02-01T15:23:26;4.60;99.90
9790;DHT22;4934;50.852;8.098;2023-02-01T15:25:53;4.60;99.90
9790;DHT22;4934;50.852;8.098;2023-02-01T15:28:26;4.60;99.90
9790;DHT22;4934;50.852;8.098;2023-02-01T15:30:59;4.70;99.90
9790;DHT22;4934;50.852;8.098;2023-02-01T15:33:26;4.70;99.90
9790;DHT22;4934;50.852;8.098;2023-02-01T15:36:39;4.60;99.90
9790;DHT22;4934;50.852;8.098;2023-02-01T15:38:43;4.70;99.90
9790;DHT22;4934;50.852;8.098;2023-02-01T15:41:17;4.70;99.90
9790;DHT22;4934;50.852;8.098;2023-02-01T15:44:04;4.70;99.90
9790;DHT22;4934;50.852;8.098;2023-02-01T15:46:40;4.70;99.90
9790;DHT22;4934;50.852;8.098;2023-02-01T15:51:46;4.80;99.90
9790;DHT22;4934;50.852;8.098;2023-02-01T15:54:23;4.70;99.90
9790;DHT22;4934;50.852;8.098;2023-02-01T15:56:52;4.70;99.90
9790;DHT22;4934;50.852;8.098;2023-02-01T15:59:43;4.80;99.90
9790;DHT22;4934;50.852;8.098;2023-02-01T16:05:02;4.70;99.90
9790;DHT22;4934;50.852;8.098;2023-02-01T16:07:30;4.70;99.90
9790;DHT22;4934;50.852;8.098;2023-02-01T16:10:00;4.70;99.90
9790;DHT22;4934;50.852;8.098;2023-02-01T16:15:04;4.70;99.90
9790;DHT22;4934;50.852;8.098;2023-02-01T16:17:30;4.70;99.90
9790;DHT22;4934;50.852;8.098;2023-02-01T16:19:56;4.70;99.90
9790;DHT22;4934;50.852;8.098;2023-02-01T16:22:23;4.70;99.90
9790;DHT22;4934;50.852;8.098;2023-02-01T16:24:49;4.70;99.90
9790;DHT22;4934;50.852;8.098;2023-02-01T16:27:15;4.70;99.90
9790;DHT22;4934;50.852;8.098;2023-02-01T16:29:40;4.70;99.90
9790;DHT22;4934;50.852;8.098;2023-02-01T16:32:08;4.70;99.90
9790;DHT22;4934;50.852;8.098;2023-02-01T16:34:35;4.70;99.90
9790;DHT22;4934;50.852;8.098;2023-02-01T16:37:03;4.80;99.90
9790;DHT22;4934;50.852;8.098;2023-02-01T16:39:28;4.80;99.90
9790;DHT22;4934;50.852;8.098;2023-02-01T16:41:55;4.80;99.90
9790;DHT22;4934;50.852;8.098;2023-02-01T16:44:21;4.70;99.90
9790;DHT22;4934;50.852;8.098;2023-02-01T16:46:47;4.70;99.90
9790;DHT22;4934;50.852;8.098;2023-02-01T16:49:23;4.70;99.90
9790;DHT22;4934;50.852;8.098;2023-02-01T16:51:51;4.70;99.90
9790;DHT22;4934;50.852;8.098;2023-02-01T16:54:18;4.70;99.90
9790;DHT22;4934;50.852;8.098;2023-02-01T16:56:45;4.80;99.90
9790;DHT22;4934;50.852;8.098;2023-02-01T16:59:11;4.80;99.90
9790;DHT22;4934;50.852;8.098;2023-02-01T17:01:37;4.80;99.90
9790;DHT22;4934;50.852;8.098;2023-02-01T17:04:04;4.80;99.90
9790;DHT22;4934;50.852;8.098;2023-02-01T17:06:30;4.80;99.90
9790;DHT22;4934;50.852;8.098;2023-02-01T17:08:58;4.80;99.90
9790;DHT22;4934;50.852;8.098;2023-02-01T17:11:25;4.80;99.90
9790;DHT22;4934;50.852;8.098;2023-02-01T17:13:51;4.80;99.90
9790;DHT22;4934;50.852;8.098;2023-02-01T17:18:43;4.90;99.90
9790;DHT22;4934;50.852;8.098;2023-02-01T17:21:09;4.90;99.90
9790;DHT22;4934;50.852;8.098;2023-02-01T17:23:35;4.90;99.90
9790;DHT22;4934;50.852;8.098;2023-02-01T17:26:01;4.90;99.90
9790;DHT22;4934;50.852;8.098;2023-02-01T17:28:28;4.90;99.90
9790;DHT22;4934;50.852;8.098;2023-02-01T17:30:53;4.90;99.90
9790;DHT22;4934;50.852;8.098;2023-02-01T17:33:31;4.90;99.90
9790;DHT22;4934;50.852;8.098;2023-02-01T17:35:58;4.90;99.90
9790;DHT22;4934;50.852;8.098;2023-02-01T17:38:24;4.90;99.90
9790;DHT22;4934;50.852;8.098;2023-02-01T17:40:50;4.90;99.90
9790;DHT22;4934;50.852;8.098;2023-02-01T17:43:23;4.80;99.90
9790;DHT22;4934;50.852;8.098;2023-02-01T17:46:13;4.80;99.90
9790;DHT22;4934;50.852;8.098;2023-02-01T17:48:40;4.80;99.90
9790;DHT22;4934;50.852;8.098;2023-02-01T17:53:39;4.80;99.90
9790;DHT22;4934;50.852;8.098;2023-02-01T17:56:05;4.80;99.90
9790;DHT22;4934;50.852;8.098;2023-02-01T17:58:30;4.80;99.90
9790;DHT22;4934;50.852;8.098;2023-02-01T18:00:57;4.80;99.90
9790;DHT22;4934;50.852;8.098;2023-02-01T18:03:26;4.80;99.90
9790;DHT22;4934;50.852;8.098;2023-02-01T18:05:53;4.80;99.90
9790;DHT22;4934;50.852;8.098;2023-02-01T18:08:25;4.80;99.90
9790;DHT22;4934;50.852;8.098;2023-02-01T18:10:53;4.90;99.90
9790;DHT22;4934;50.852;8.098;2023-02-01T18:13:20;4.90;99.90
9790;DHT22;4934;50.852;8.098;2023-02-01T18:15:46;4.90;99.90
9790;DHT22;4934;50.852;8.098;2023-02-01T18:18:12;4.90;99.90
9790;DHT22;4934;50.852;8.098;2023-02-01T18:20:40;4.90;99.90
9790;DHT22;4934;50.852;8.098;2023-02-01T18:25:41;5.00;99.90
9790;DHT22;4934;50.852;8.098;2023-02-01T18:28:06;5.00;99.90
9790;DHT22;4934;50.852;8.098;2023-02-01T18:30:33;5.00;99.90
9790;DHT22;4934;50.852;8.098;2023-02-01T18:32:59;5.00;99.90
9790;DHT22;4934;50.852;8.098;2023-02-01T18:35:27;5.00;99.90
9790;DHT22;4934;50.852;8.098;2023-02-01T18:37:54;5.00;99.90
9790;DHT22;4934;50.852;8.098;2023-02-01T18:40:32;5.10;99.90
9790;DHT22;4934;50.852;8.098;2023-02-01T18:42:58;5.10;99.90
9790;DHT22;4934;50.852;8.098;2023-02-01T18:47:57;5.10;99.90
9790;DHT22;4934;50.852;8.098;2023-02-01T18:50:25;5.10;99.90
9790;DHT22;4934;50.852;8.098;2023-02-01T18:52:53;5.10;99.90
9790;DHT22;4934;50.852;8.098;2023-02-01T18:55:19;5.10;99.90
9790;DHT22;4934;50.852;8.098;2023-02-01T18:57:44;5.10;99.90
9790;DHT22;4934;50.852;8.098;2023-02-01T19:00:11;5.10;99.90
9790;DHT22;4934;50.852;8.098;2023-02-01T19:02:37;5.10;99.90
9790;DHT22;4934;50.852;8.098;2023-02-01T19:05:07;5.10;99.90
9790;DHT22;4934;50.852;8.098;2023-02-01T19:07:35;5.10;99.90